sensor_id;sensor_type;location;lat;lon;timestamp;P1;durP1;ratioP1;P2;durP2;ratioP2
67981;SDS011;64109;52.148;4.466;2022-10-22T00:01:22;4.68;;;2.08;;
67981;SDS011;64109;52.148;4.466;2022-10-22T00:03:48;3.88;;;2.25;;
67981;SDS011;64109;52.148;4.466;2022-10-22T00:06:14;2.78;;;2.10;;
67981;SDS011;64109;52.148;4.466;2022-10-22T00:08:40;4.15;;;2.53;;
67981;SDS011;64109;52.148;4.466;2022-10-22T00:11:07;5.38;;;2.15;;
67981;SDS011;64109;52.148;4.466;2022-10-22T00:13:33;3.90;;;1.92;;
67981;SDS011;64109;52.148;4.466;2022-10-22T00:15:59;2.63;;;1.73;;
67981;SDS011;64109;52.148;4.466;2022-10-22T00:18:25;4.03;;;2.10;;
67981;SDS011;64109;52.148;4.466;2022-10-22T00:20:51;3.30;;;2.75;;
67981;SDS011;64109;52.148;4.466;2022-10-22T00:23:17;4.65;;;2.35;;
67981;SDS011;64109;52.148;4.466;2022-10-22T00:25:43;3.97;;;2.17;;
67981;SDS011;64109;52.148;4.466;2022-10-22T00:28:09;5.00;;;2.80;;
67981;SDS011;64109;52.148;4.466;2022-10-22T00:30:35;3.20;;;2.22;;
67981;SDS011;64109;52.148;4.466;2022-10-22T00:33:01;3.40;;;2.35;;
67981;SDS011;64109;52.148;4.466;2022-10-22T00:35:27;3.33;;;1.92;;
67981;SDS011;64109;52.148;4.466;2022-10-22T00:37:53;4.13;;;1.85;;
67981;SDS011;64109;52.148;4.466;2022-10-22T00:40:19;5.47;;;3.55;;
67981;SDS011;64109;52.148;4.466;2022-10-22T00:42:45;3.75;;;2.22;;
67981;SDS011;64109;52.148;4.466;2022-10-22T00:52:54;3.55;;;1.98;;
67981;SDS011;64109;52.148;4.466;2022-10-22T00:55:20;3.03;;;1.85;;
67981;SDS011;64109;52.148;4.466;2022-10-22T00:57:47;4.35;;;2.22;;
67981;SDS011;64109;52.148;4.466;2022-10-22T01:00:13;3.33;;;2.22;;
67981;SDS011;64109;52.148;4.466;2022-10-22T01:02:39;3.78;;;2.03;;
67981;SDS011;64109;52.148;4.466;2022-10-22T01:05:06;3.38;;;1.90;;
67981;SDS011;64109;52.148;4.466;2022-10-22T01:07:32;4.07;;;2.30;;
67981;SDS011;64109;52.148;4.466;2022-10-22T01:12:55;7.30;;;2.88;;
67981;SDS011;64109;52.148;4.466;2022-10-22T01:15:35;3.15;;;1.13;;
67981;SDS011;64109;52.148;4.466;2022-10-22T01:18:07;4.63;;;2.60;;
67981;SDS011;64109;52.148;4.466;2022-10-22T01:20:40;4.57;;;1.80;;
67981;SDS011;64109;52.148;4.466;2022-10-22T01:28:25;4.50;;;2.53;;
67981;SDS011;64109;52.148;4.466;2022-10-22T01:30:53;3.40;;;1.95;;
67981;SDS011;64109;52.148;4.466;2022-10-22T01:33:21;3.55;;;1.80;;
67981;SDS011;64109;52.148;4.466;2022-10-22T01:35:48;4.10;;;2.03;;
67981;SDS011;64109;52.148;4.466;2022-10-22T01:38:16;3.20;;;1.95;;
67981;SDS011;64109;52.148;4.466;2022-10-22T01:40:44;3.55;;;2.00;;
67981;SDS011;64109;52.148;4.466;2022-10-22T01:43:10;5.25;;;2.10;;
67981;SDS011;64109;52.148;4.466;2022-10-22T01:45:43;4.35;;;2.05;;
67981;SDS011;64109;52.148;4.466;2022-10-22T01:48:15;3.35;;;2.03;;
67981;SDS011;64109;52.148;4.466;2022-10-22T01:50:54;3.10;;;1.92;;
67981;SDS011;64109;52.148;4.466;2022-10-22T01:53:29;4.45;;;2.20;;
67981;SDS011;64109;52.148;4.466;2022-10-22T02:03:55;4.63;;;2.20;;
67981;SDS011;64109;52.148;4.466;2022-10-22T02:06:23;4.28;;;1.67;;
67981;SDS011;64109;52.148;4.466;2022-10-22T02:08:50;3.22;;;2.15;;
67981;SDS011;64109;52.148;4.466;2022-10-22T02:11:16;3.10;;;1.98;;
67981;SDS011;64109;52.148;4.466;2022-10-22T02:13:43;3.20;;;2.08;;
67981;SDS011;64109;52.148;4.466;2022-10-22T02:16:12;4.35;;;1.88;;
67981;SDS011;64109;52.148;4.466;2022-10-22T02:18:39;3.40;;;1.98;;
67981;SDS011;64109;52.148;4.466;2022-10-22T02:21:07;2.88;;;2.00;;
67981;SDS011;64109;52.148;4.466;2022-10-22T02:23:33;4.18;;;1.80;;
67981;SDS011;64109;52.148;4.466;2022-10-22T02:26:01;3.40;;;2.08;;
67981;SDS011;64109;52.148;4.466;2022-10-22T02:28:28;3.55;;;2.22;;
67981;SDS011;64109;52.148;4.466;2022-10-22T02:30:59;5.32;;;2.17;;
67981;SDS011;64109;52.148;4.466;2022-10-22T02:33:29;4.35;;;2.20;;
67981;SDS011;64109;52.148;4.466;2022-10-22T02:35:55;5.03;;;1.50;;
67981;SDS011;64109;52.148;4.466;2022-10-22T02:38:23;3.70;;;1.42;;
67981;SDS011;64109;52.148;4.466;2022-10-22T02:40:49;3.92;;;1.95;;
67981;SDS011;64109;52.148;4.466;2022-10-22T02:43:16;5.57;;;1.77;;
67981;SDS011;64109;52.148;4.466;2022-10-22T02:45:42;4.82;;;2.20;;
67981;SDS011;64109;52.148;4.466;2022-10-22T02:48:09;4.60;;;2.03;;
67981;SDS011;64109;52.148;4.466;2022-10-22T02:50:34;5.47;;;1.80;;
67981;SDS011;64109;52.148;4.466;2022-10-22T02:53:01;5.20;;;2.78;;
67981;SDS011;64109;52.148;4.466;2022-10-22T02:55:27;3.17;;;2.13;;
67981;SDS011;64109;52.148;4.466;2022-10-22T02:57:52;3.00;;;1.90;;
67981;SDS011;64109;52.148;4.466;2022-10-22T03:00:18;5.15;;;1.52;;
67981;SDS011;64109;52.148;4.466;2022-10-22T03:02:44;4.72;;;2.33;;
67981;SDS011;64109;52.148;4.466;2022-10-22T03:05:10;3.60;;;2.20;;
67981;SDS011;64109;52.148;4.466;2022-10-22T03:07:36;3.25;;;1.30;;
67981;SDS011;64109;52.148;4.466;2022-10-22T03:10:03;5.40;;;1.20;;
67981;SDS011;64109;52.148;4.466;2022-10-22T03:12:29;4.25;;;2.45;;
67981;SDS011;64109;52.148;4.466;2022-10-22T03:14:55;3.22;;;2.15;;
67981;SDS011;64109;52.148;4.466;2022-10-22T03:17:21;4.93;;;2.42;;
67981;SDS011;64109;52.148;4.466;2022-10-22T03:19:47;5.47;;;1.85;;
67981;SDS011;64109;52.148;4.466;2022-10-22T03:22:14;5.15;;;2.28;;
67981;SDS011;64109;52.148;4.466;2022-10-22T03:24:43;3.33;;;1.90;;
67981;SDS011;64109;52.148;4.466;2022-10-22T03:27:09;3.33;;;1.98;;
67981;SDS011;64109;52.148;4.466;2022-10-22T03:29:37;3.38;;;2.22;;
67981;SDS011;64109;52.148;4.466;2022-10-22T03:32:04;4.00;;;2.53;;
67981;SDS011;64109;52.148;4.466;2022-10-22T03:34:30;3.47;;;1.65;;
67981;SDS011;64109;52.148;4.466;2022-10-22T03:36:57;4.70;;;1.30;;
67981;SDS011;64109;52.148;4.466;2022-10-22T03:39:24;3.15;;;1.27;;
67981;SDS011;64109;52.148;4.466;2022-10-22T03:41:50;3.88;;;2.15;;
67981;SDS011;64109;52.148;4.466;2022-10-22T03:44:17;3.42;;;1.27;;
67981;SDS011;64109;52.148;4.466;2022-10-22T03:46:43;3.42;;;2.20;;
67981;SDS011;64109;52.148;4.466;2022-10-22T03:49:09;6.05;;;2.53;;
67981;SDS011;64109;52.148;4.466;2022-10-22T03:51:35;4.55;;;2.78;;
67981;SDS011;64109;52.148;4.466;2022-10-22T03:54:02;5.32;;;2.75;;
67981;SDS011;64109;52.148;4.466;2022-10-22T03:56:28;5.68;;;2.22;;
67981;SDS011;64109;52.148;4.466;2022-10-22T03:58:55;2.92;;;1.88;;
67981;SDS011;64109;52.148;4.466;2022-10-22T04:01:21;4.60;;;2.08;;
67981;SDS011;64109;52.148;4.466;2022-10-22T04:03:48;5.35;;;2.55;;
67981;SDS011;64109;52.148;4.466;2022-10-22T04:06:14;5.10;;;1.85;;
67981;SDS011;64109;52.148;4.466;2022-10-22T04:08:41;3.17;;;1.90;;
67981;SDS011;64109;52.148;4.466;2022-10-22T04:11:07;3.35;;;1.77;;
67981;SDS011;64109;52.148;4.466;2022-10-22T04:13:34;5.63;;;2.25;;
67981;SDS011;64109;52.148;4.466;2022-10-22T04:18:32;3.92;;;2.22;;
67981;SDS011;64109;52.148;4.466;2022-10-22T04:20:58;3.10;;;1.27;;
67981;SDS011;64109;52.148;4.466;2022-10-22T04:23:24;5.35;;;2.00;;
67981;SDS011;64109;52.148;4.466;2022-10-22T04:25:56;4.50;;;1.80;;
67981;SDS011;64109;52.148;4.466;2022-10-22T04:28:22;5.85;;;2.17;;
67981;SDS011;64109;52.148;4.466;2022-10-22T04:30:48;5.80;;;2.10;;
67981;SDS011;64109;52.148;4.466;2022-10-22T04:33:14;3.78;;;1.15;;
67981;SDS011;64109;52.148;4.466;2022-10-22T04:35:40;6.22;;;2.10;;
67981;SDS011;64109;52.148;4.466;2022-10-22T04:38:06;6.40;;;3.40;;
67981;SDS011;64109;52.148;4.466;2022-10-22T04:40:32;5.45;;;2.10;;
67981;SDS011;64109;52.148;4.466;2022-10-22T04:42:57;5.20;;;2.33;;
67981;SDS011;64109;52.148;4.466;2022-10-22T04:45:23;5.78;;;1.80;;
67981;SDS011;64109;52.148;4.466;2022-10-22T04:47:49;6.00;;;2.30;;
67981;SDS011;64109;52.148;4.466;2022-10-22T04:50:15;3.35;;;2.28;;
67981;SDS011;64109;52.148;4.466;2022-10-22T04:52:42;4.05;;;1.70;;
67981;SDS011;64109;52.148;4.466;2022-10-22T04:55:08;3.97;;;2.08;;
67981;SDS011;64109;52.148;4.466;2022-10-22T04:57:34;4.50;;;1.80;;
67981;SDS011;64109;52.148;4.466;2022-10-22T04:59:59;3.45;;;2.75;;
67981;SDS011;64109;52.148;4.466;2022-10-22T05:02:25;7.88;;;2.53;;
67981;SDS011;64109;52.148;4.466;2022-10-22T05:04:51;3.53;;;1.50;;
67981;SDS011;64109;52.148;4.466;2022-10-22T05:07:17;4.40;;;1.83;;
67981;SDS011;64109;52.148;4.466;2022-10-22T05:09:43;5.20;;;2.28;;
67981;SDS011;64109;52.148;4.466;2022-10-22T05:12:09;6.57;;;2.28;;
67981;SDS011;64109;52.148;4.466;2022-10-22T05:14:35;5.72;;;1.80;;
67981;SDS011;64109;52.148;4.466;2022-10-22T05:17:01;6.18;;;2.00;;
67981;SDS011;64109;52.148;4.466;2022-10-22T05:19:28;6.10;;;1.40;;
67981;SDS011;64109;52.148;4.466;2022-10-22T05:22:02;10.30;;;2.60;;
67981;SDS011;64109;52.148;4.466;2022-10-22T05:24:28;5.60;;;1.48;;
67981;SDS011;64109;52.148;4.466;2022-10-22T05:26:55;7.10;;;2.40;;
67981;SDS011;64109;52.148;4.466;2022-10-22T05:29:21;7.28;;;1.92;;
67981;SDS011;64109;52.148;4.466;2022-10-22T05:31:47;7.97;;;2.63;;
67981;SDS011;64109;52.148;4.466;2022-10-22T05:34:13;5.80;;;1.83;;
67981;SDS011;64109;52.148;4.466;2022-10-22T05:36:39;6.25;;;2.45;;
67981;SDS011;64109;52.148;4.466;2022-10-22T05:39:05;5.20;;;2.20;;
67981;SDS011;64109;52.148;4.466;2022-10-22T05:41:32;4.40;;;2.30;;
67981;SDS011;64109;52.148;4.466;2022-10-22T05:44:02;6.38;;;1.98;;
67981;SDS011;64109;52.148;4.466;2022-10-22T05:46:29;4.55;;;1.60;;
67981;SDS011;64109;52.148;4.466;2022-10-22T05:48:56;4.47;;;2.20;;
67981;SDS011;64109;52.148;4.466;2022-10-22T05:51:23;9.00;;;3.00;;
67981;SDS011;64109;52.148;4.466;2022-10-22T05:53:51;6.38;;;2.45;;
67981;SDS011;64109;52.148;4.466;2022-10-22T05:56:17;5.97;;;1.58;;
67981;SDS011;64109;52.148;4.466;2022-10-22T05:58:43;8.35;;;2.40;;
67981;SDS011;64109;52.148;4.466;2022-10-22T06:01:11;5.43;;;2.22;;
67981;SDS011;64109;52.148;4.466;2022-10-22T06:03:37;6.63;;;1.75;;
67981;SDS011;64109;52.148;4.466;2022-10-22T06:06:06;6.38;;;2.00;;
67981;SDS011;64109;52.148;4.466;2022-10-22T06:08:36;5.63;;;2.10;;
67981;SDS011;64109;52.148;4.466;2022-10-22T06:11:03;5.50;;;2.33;;
67981;SDS011;64109;52.148;4.466;2022-10-22T06:13:29;6.10;;;1.73;;
67981;SDS011;64109;52.148;4.466;2022-10-22T06:15:56;6.50;;;2.22;;
67981;SDS011;64109;52.148;4.466;2022-10-22T06:18:22;5.63;;;1.65;;
67981;SDS011;64109;52.148;4.466;2022-10-22T06:20:48;6.53;;;2.58;;
67981;SDS011;64109;52.148;4.466;2022-10-22T06:23:14;6.93;;;2.25;;
67981;SDS011;64109;52.148;4.466;2022-10-22T06:25:41;5.10;;;2.50;;
67981;SDS011;64109;52.148;4.466;2022-10-22T06:28:07;4.22;;;2.20;;
67981;SDS011;64109;52.148;4.466;2022-10-22T06:30:33;7.43;;;2.17;;
67981;SDS011;64109;52.148;4.466;2022-10-22T06:32:59;5.95;;;2.55;;
67981;SDS011;64109;52.148;4.466;2022-10-22T06:35:25;5.05;;;1.80;;
67981;SDS011;64109;52.148;4.466;2022-10-22T06:37:51;6.28;;;2.42;;
67981;SDS011;64109;52.148;4.466;2022-10-22T06:40:17;5.15;;;1.30;;
67981;SDS011;64109;52.148;4.466;2022-10-22T06:42:43;4.65;;;2.13;;
67981;SDS011;64109;52.148;4.466;2022-10-22T06:45:09;6.32;;;3.35;;
67981;SDS011;64109;52.148;4.466;2022-10-22T06:47:35;5.35;;;1.85;;
67981;SDS011;64109;52.148;4.466;2022-10-22T06:50:01;6.72;;;2.10;;
67981;SDS011;64109;52.148;4.466;2022-10-22T06:52:27;6.78;;;2.33;;
67981;SDS011;64109;52.148;4.466;2022-10-22T06:54:53;8.10;;;2.05;;
67981;SDS011;64109;52.148;4.466;2022-10-22T06:57:20;6.45;;;2.20;;
67981;SDS011;64109;52.148;4.466;2022-10-22T06:59:46;6.00;;;2.00;;
67981;SDS011;64109;52.148;4.466;2022-10-22T07:02:12;4.70;;;1.90;;
67981;SDS011;64109;52.148;4.466;2022-10-22T07:04:38;5.57;;;1.73;;
67981;SDS011;64109;52.148;4.466;2022-10-22T07:07:04;5.45;;;1.92;;
67981;SDS011;64109;52.148;4.466;2022-10-22T07:09:30;5.57;;;1.92;;
67981;SDS011;64109;52.148;4.466;2022-10-22T07:11:56;6.40;;;1.70;;
67981;SDS011;64109;52.148;4.466;2022-10-22T07:14:22;4.93;;;1.55;;
67981;SDS011;64109;52.148;4.466;2022-10-22T07:16:48;6.72;;;2.53;;
67981;SDS011;64109;52.148;4.466;2022-10-22T07:19:14;4.70;;;1.08;;
67981;SDS011;64109;52.148;4.466;2022-10-22T07:21:40;6.03;;;1.92;;
67981;SDS011;64109;52.148;4.466;2022-10-22T07:24:06;6.25;;;2.00;;
67981;SDS011;64109;52.148;4.466;2022-10-22T07:26:32;5.95;;;2.28;;
67981;SDS011;64109;52.148;4.466;2022-10-22T07:28:58;5.60;;;1.85;;
67981;SDS011;64109;52.148;4.466;2022-10-22T07:31:24;3.78;;;1.63;;
67981;SDS011;64109;52.148;4.466;2022-10-22T07:33:50;4.38;;;1.95;;
67981;SDS011;64109;52.148;4.466;2022-10-22T07:36:16;3.00;;;1.88;;
67981;SDS011;64109;52.148;4.466;2022-10-22T07:38:46;4.32;;;1.92;;
67981;SDS011;64109;52.148;4.466;2022-10-22T07:41:13;3.20;;;1.63;;
67981;SDS011;64109;52.148;4.466;2022-10-22T07:43:39;2.83;;;1.67;;
67981;SDS011;64109;52.148;4.466;2022-10-22T07:46:05;5.50;;;2.00;;
67981;SDS011;64109;52.148;4.466;2022-10-22T07:48:33;3.75;;;1.88;;
67981;SDS011;64109;52.148;4.466;2022-10-22T07:50:59;3.97;;;1.70;;
67981;SDS011;64109;52.148;4.466;2022-10-22T07:53:25;2.30;;;1.10;;
67981;SDS011;64109;52.148;4.466;2022-10-22T07:55:51;3.53;;;2.08;;
67981;SDS011;64109;52.148;4.466;2022-10-22T07:58:18;6.63;;;1.20;;
67981;SDS011;64109;52.148;4.466;2022-10-22T08:00:45;5.45;;;2.08;;
67981;SDS011;64109;52.148;4.466;2022-10-22T08:03:11;4.97;;;1.70;;
67981;SDS011;64109;52.148;4.466;2022-10-22T08:05:37;3.47;;;1.45;;
67981;SDS011;64109;52.148;4.466;2022-10-22T08:08:04;4.13;;;1.77;;
67981;SDS011;64109;52.148;4.466;2022-10-22T08:10:30;4.28;;;1.75;;
67981;SDS011;64109;52.148;4.466;2022-10-22T08:12:57;7.65;;;1.10;;
67981;SDS011;64109;52.148;4.466;2022-10-22T08:15:23;4.93;;;2.08;;
67981;SDS011;64109;52.148;4.466;2022-10-22T08:17:51;3.45;;;1.60;;
67981;SDS011;64109;52.148;4.466;2022-10-22T08:20:17;3.00;;;1.92;;
67981;SDS011;64109;52.148;4.466;2022-10-22T08:22:43;6.45;;;1.50;;
67981;SDS011;64109;52.148;4.466;2022-10-22T08:25:09;4.20;;;1.65;;
67981;SDS011;64109;52.148;4.466;2022-10-22T08:27:35;3.75;;;1.10;;
67981;SDS011;64109;52.148;4.466;2022-10-22T08:30:02;3.38;;;1.92;;
67981;SDS011;64109;52.148;4.466;2022-10-22T08:32:28;4.32;;;1.35;;
67981;SDS011;64109;52.148;4.466;2022-10-22T08:34:54;3.38;;;1.65;;
67981;SDS011;64109;52.148;4.466;2022-10-22T08:37:20;7.05;;;2.10;;
67981;SDS011;64109;52.148;4.466;2022-10-22T08:39:46;3.88;;;1.02;;
67981;SDS011;64109;52.148;4.466;2022-10-22T08:50:04;3.33;;;0.90;;
67981;SDS011;64109;52.148;4.466;2022-10-22T08:52:30;4.35;;;1.55;;
67981;SDS011;64109;52.148;4.466;2022-10-22T08:54:57;4.28;;;1.67;;
67981;SDS011;64109;52.148;4.466;2022-10-22T08:57:33;3.47;;;1.55;;
67981;SDS011;64109;52.148;4.466;2022-10-22T09:02:55;4.68;;;1.63;;
67981;SDS011;64109;52.148;4.466;2022-10-22T09:07:53;4.55;;;1.73;;
67981;SDS011;64109;52.148;4.466;2022-10-22T09:10:20;3.42;;;1.50;;
67981;SDS011;64109;52.148;4.466;2022-10-22T09:12:47;3.85;;;1.10;;
67981;SDS011;64109;52.148;4.466;2022-10-22T09:15:14;3.58;;;1.73;;
67981;SDS011;64109;52.148;4.466;2022-10-22T09:20:13;5.78;;;2.08;;
67981;SDS011;64109;52.148;4.466;2022-10-22T09:25:26;6.45;;;1.90;;
67981;SDS011;64109;52.148;4.466;2022-10-22T09:27:53;5.18;;;1.50;;
67981;SDS011;64109;52.148;4.466;2022-10-22T09:30:23;4.20;;;1.58;;
67981;SDS011;64109;52.148;4.466;2022-10-22T09:33:35;5.15;;;1.95;;
67981;SDS011;64109;52.148;4.466;2022-10-22T09:38:18;6.93;;;2.00;;
67981;SDS011;64109;52.148;4.466;2022-10-22T09:40:49;6.97;;;1.33;;
67981;SDS011;64109;52.148;4.466;2022-10-22T09:43:15;5.38;;;2.42;;
67981;SDS011;64109;52.148;4.466;2022-10-22T09:45:42;6.07;;;1.85;;
67981;SDS011;64109;52.148;4.466;2022-10-22T09:48:10;3.75;;;1.88;;
67981;SDS011;64109;52.148;4.466;2022-10-22T09:55:38;3.42;;;1.50;;
67981;SDS011;64109;52.148;4.466;2022-10-22T09:58:04;5.30;;;1.40;;
67981;SDS011;64109;52.148;4.466;2022-10-22T10:00:30;6.38;;;2.95;;
67981;SDS011;64109;52.148;4.466;2022-10-22T10:02:56;5.00;;;2.35;;
67981;SDS011;64109;52.148;4.466;2022-10-22T10:05:27;5.43;;;1.75;;
67981;SDS011;64109;52.148;4.466;2022-10-22T10:07:53;4.75;;;1.83;;
67981;SDS011;64109;52.148;4.466;2022-10-22T10:10:44;5.55;;;1.95;;
67981;SDS011;64109;52.148;4.466;2022-10-22T10:18:57;4.55;;;1.75;;
67981;SDS011;64109;52.148;4.466;2022-10-22T10:21:43;3.85;;;1.45;;
67981;SDS011;64109;52.148;4.466;2022-10-22T10:26:54;4.10;;;1.75;;
67981;SDS011;64109;52.148;4.466;2022-10-22T10:37:23;6.20;;;2.00;;
67981;SDS011;64109;52.148;4.466;2022-10-22T10:42:52;3.85;;;1.95;;
67981;SDS011;64109;52.148;4.466;2022-10-22T10:45:31;6.22;;;1.83;;
67981;SDS011;64109;52.148;4.466;2022-10-22T10:50:29;8.77;;;1.60;;
67981;SDS011;64109;52.148;4.466;2022-10-22T10:55:36;6.22;;;1.83;;
67981;SDS011;64109;52.148;4.466;2022-10-22T11:00:56;4.93;;;2.00;;
67981;SDS011;64109;52.148;4.466;2022-10-22T11:06:08;5.13;;;2.08;;
67981;SDS011;64109;52.148;4.466;2022-10-22T11:08:39;6.47;;;1.60;;
67981;SDS011;64109;52.148;4.466;2022-10-22T11:16:19;5.70;;;1.77;;
67981;SDS011;64109;52.148;4.466;2022-10-22T11:18:52;4.00;;;1.60;;
67981;SDS011;64109;52.148;4.466;2022-10-22T11:21:26;7.28;;;2.42;;
67981;SDS011;64109;52.148;4.466;2022-10-22T11:23:54;6.47;;;1.60;;
67981;SDS011;64109;52.148;4.466;2022-10-22T11:29:08;5.65;;;1.63;;
67981;SDS011;64109;52.148;4.466;2022-10-22T11:31:36;5.60;;;1.92;;
67981;SDS011;64109;52.148;4.466;2022-10-22T11:34:04;5.60;;;1.13;;
67981;SDS011;64109;52.148;4.466;2022-10-22T11:36:31;5.65;;;1.70;;
67981;SDS011;64109;52.148;4.466;2022-10-22T11:38:58;4.10;;;1.80;;
67981;SDS011;64109;52.148;4.466;2022-10-22T11:41:26;6.93;;;2.15;;
67981;SDS011;64109;52.148;4.466;2022-10-22T11:44:07;6.60;;;2.58;;
67981;SDS011;64109;52.148;4.466;2022-10-22T11:49:22;4.88;;;1.42;;
67981;SDS011;64109;52.148;4.466;2022-10-22T11:51:48;5.05;;;1.98;;
67981;SDS011;64109;52.148;4.466;2022-10-22T11:59:38;5.05;;;1.45;;
67981;SDS011;64109;52.148;4.466;2022-10-22T12:04:49;4.95;;;1.15;;
67981;SDS011;64109;52.148;4.466;2022-10-22T12:07:29;6.05;;;2.08;;
67981;SDS011;64109;52.148;4.466;2022-10-22T12:09:56;8.52;;;2.17;;
67981;SDS011;64109;52.148;4.466;2022-10-22T12:12:22;4.30;;;2.10;;
67981;SDS011;64109;52.148;4.466;2022-10-22T12:17:17;8.93;;;3.15;;
67981;SDS011;64109;52.148;4.466;2022-10-22T12:19:45;9.65;;;3.17;;
67981;SDS011;64109;52.148;4.466;2022-10-22T12:24:40;6.72;;;2.55;;
67981;SDS011;64109;52.148;4.466;2022-10-22T12:27:16;8.07;;;3.30;;
67981;SDS011;64109;52.148;4.466;2022-10-22T12:29:42;9.65;;;3.28;;
67981;SDS011;64109;52.148;4.466;2022-10-22T12:32:09;9.10;;;3.30;;
67981;SDS011;64109;52.148;4.466;2022-10-22T12:34:36;7.15;;;2.90;;
67981;SDS011;64109;52.148;4.466;2022-10-22T12:37:09;9.85;;;3.38;;
67981;SDS011;64109;52.148;4.466;2022-10-22T12:39:36;7.22;;;2.53;;
67981;SDS011;64109;52.148;4.466;2022-10-22T12:42:03;9.30;;;3.20;;
67981;SDS011;64109;52.148;4.466;2022-10-22T12:44:30;9.27;;;3.35;;
67981;SDS011;64109;52.148;4.466;2022-10-22T12:46:57;10.95;;;3.22;;
67981;SDS011;64109;52.148;4.466;2022-10-22T12:49:39;6.18;;;2.88;;
67981;SDS011;64109;52.148;4.466;2022-10-22T12:52:06;7.50;;;3.63;;
67981;SDS011;64109;52.148;4.466;2022-10-22T12:54:33;8.30;;;2.88;;
67981;SDS011;64109;52.148;4.466;2022-10-22T12:57:00;8.60;;;2.83;;
67981;SDS011;64109;52.148;4.466;2022-10-22T13:01:52;11.95;;;3.22;;
67981;SDS011;64109;52.148;4.466;2022-10-22T13:09:40;9.07;;;1.95;;
67981;SDS011;64109;52.148;4.466;2022-10-22T13:12:06;7.05;;;2.70;;
67981;SDS011;64109;52.148;4.466;2022-10-22T13:14:35;7.82;;;2.30;;
67981;SDS011;64109;52.148;4.466;2022-10-22T13:22:03;8.70;;;3.40;;
67981;SDS011;64109;52.148;4.466;2022-10-22T13:24:29;11.73;;;3.13;;
67981;SDS011;64109;52.148;4.466;2022-10-22T13:26:55;12.15;;;3.92;;
67981;SDS011;64109;52.148;4.466;2022-10-22T13:29:21;9.70;;;3.50;;
67981;SDS011;64109;52.148;4.466;2022-10-22T13:31:51;12.45;;;2.97;;
67981;SDS011;64109;52.148;4.466;2022-10-22T13:34:21;14.63;;;3.80;;
67981;SDS011;64109;52.148;4.466;2022-10-22T13:36:48;15.50;;;4.53;;
67981;SDS011;64109;52.148;4.466;2022-10-22T13:39:18;15.45;;;3.60;;
67981;SDS011;64109;52.148;4.466;2022-10-22T13:41:45;16.00;;;5.28;;
67981;SDS011;64109;52.148;4.466;2022-10-22T13:44:11;18.33;;;6.10;;
67981;SDS011;64109;52.148;4.466;2022-10-22T13:46:37;22.73;;;7.53;;
67981;SDS011;64109;52.148;4.466;2022-10-22T13:49:06;23.38;;;6.13;;
67981;SDS011;64109;52.148;4.466;2022-10-22T13:54:01;22.50;;;7.72;;
67981;SDS011;64109;52.148;4.466;2022-10-22T13:56:28;19.42;;;7.18;;
67981;SDS011;64109;52.148;4.466;2022-10-22T13:58:54;27.05;;;8.45;;
67981;SDS011;64109;52.148;4.466;2022-10-22T14:01:24;19.67;;;7.43;;
67981;SDS011;64109;52.148;4.466;2022-10-22T14:03:52;20.45;;;6.00;;
67981;SDS011;64109;52.148;4.466;2022-10-22T14:06:18;20.20;;;8.00;;
67981;SDS011;64109;52.148;4.466;2022-10-22T14:08:47;25.73;;;7.43;;
67981;SDS011;64109;52.148;4.466;2022-10-22T14:11:14;20.90;;;7.45;;
67981;SDS011;64109;52.148;4.466;2022-10-22T14:13:41;22.13;;;7.35;;
67981;SDS011;64109;52.148;4.466;2022-10-22T14:16:10;22.77;;;5.63;;
67981;SDS011;64109;52.148;4.466;2022-10-22T14:18:38;17.17;;;5.75;;
67981;SDS011;64109;52.148;4.466;2022-10-22T14:21:05;22.52;;;7.00;;
67981;SDS011;64109;52.148;4.466;2022-10-22T14:23:32;19.50;;;5.95;;
67981;SDS011;64109;52.148;4.466;2022-10-22T14:25:58;20.50;;;6.80;;
67981;SDS011;64109;52.148;4.466;2022-10-22T14:28:24;19.58;;;5.20;;
67981;SDS011;64109;52.148;4.466;2022-10-22T14:30:50;17.83;;;6.82;;
67981;SDS011;64109;52.148;4.466;2022-10-22T14:33:17;17.98;;;5.82;;
67981;SDS011;64109;52.148;4.466;2022-10-22T14:35:44;14.88;;;5.68;;
67981;SDS011;64109;52.148;4.466;2022-10-22T14:38:10;16.85;;;5.82;;
67981;SDS011;64109;52.148;4.466;2022-10-22T14:40:36;17.90;;;6.00;;
67981;SDS011;64109;52.148;4.466;2022-10-22T14:43:04;15.73;;;5.22;;
67981;SDS011;64109;52.148;4.466;2022-10-22T14:45:30;17.17;;;5.68;;
67981;SDS011;64109;52.148;4.466;2022-10-22T14:47:56;18.15;;;5.78;;
67981;SDS011;64109;52.148;4.466;2022-10-22T14:50:22;21.00;;;4.50;;
67981;SDS011;64109;52.148;4.466;2022-10-22T14:52:49;11.68;;;5.13;;
67981;SDS011;64109;52.148;4.466;2022-10-22T14:55:16;16.30;;;5.03;;
67981;SDS011;64109;52.148;4.466;2022-10-22T14:57:42;13.50;;;5.28;;
67981;SDS011;64109;52.148;4.466;2022-10-22T15:00:09;12.75;;;5.20;;
67981;SDS011;64109;52.148;4.466;2022-10-22T15:02:36;13.55;;;4.90;;
67981;SDS011;64109;52.148;4.466;2022-10-22T15:05:02;13.88;;;4.57;;
67981;SDS011;64109;52.148;4.466;2022-10-22T15:07:29;16.85;;;4.63;;
67981;SDS011;64109;52.148;4.466;2022-10-22T15:09:55;12.80;;;4.32;;
67981;SDS011;64109;52.148;4.466;2022-10-22T15:12:20;10.35;;;4.63;;
67981;SDS011;64109;52.148;4.466;2022-10-22T15:14:46;12.68;;;4.78;;
67981;SDS011;64109;52.148;4.466;2022-10-22T15:17:13;16.95;;;4.60;;
67981;SDS011;64109;52.148;4.466;2022-10-22T15:19:39;11.15;;;4.82;;
67981;SDS011;64109;52.148;4.466;2022-10-22T15:22:05;13.65;;;4.00;;
67981;SDS011;64109;52.148;4.466;2022-10-22T15:24:31;12.07;;;4.43;;
67981;SDS011;64109;52.148;4.466;2022-10-22T15:26:57;11.75;;;3.08;;
67981;SDS011;64109;52.148;4.466;2022-10-22T15:29:23;11.05;;;4.10;;
67981;SDS011;64109;52.148;4.466;2022-10-22T15:31:51;13.15;;;4.55;;
67981;SDS011;64109;52.148;4.466;2022-10-22T15:34:21;10.40;;;4.80;;
67981;SDS011;64109;52.148;4.466;2022-10-22T15:36:48;9.25;;;4.35;;
67981;SDS011;64109;52.148;4.466;2022-10-22T15:39:14;11.15;;;3.92;;
67981;SDS011;64109;52.148;4.466;2022-10-22T15:41:41;14.45;;;4.20;;
67981;SDS011;64109;52.148;4.466;2022-10-22T15:44:07;9.65;;;3.38;;
67981;SDS011;64109;52.148;4.466;2022-10-22T15:46:33;10.68;;;4.47;;
67981;SDS011;64109;52.148;4.466;2022-10-22T15:48:59;10.45;;;4.05;;
67981;SDS011;64109;52.148;4.466;2022-10-22T15:51:26;13.90;;;4.85;;
67981;SDS011;64109;52.148;4.466;2022-10-22T15:53:52;8.50;;;4.18;;
67981;SDS011;64109;52.148;4.466;2022-10-22T15:56:19;11.68;;;4.57;;
67981;SDS011;64109;52.148;4.466;2022-10-22T15:58:46;12.45;;;4.75;;
67981;SDS011;64109;52.148;4.466;2022-10-22T16:01:12;14.23;;;4.15;;
67981;SDS011;64109;52.148;4.466;2022-10-22T16:03:39;11.35;;;4.82;;
67981;SDS011;64109;52.148;4.466;2022-10-22T16:06:06;14.60;;;5.03;;
67981;SDS011;64109;52.148;4.466;2022-10-22T16:08:32;14.75;;;4.10;;
67981;SDS011;64109;52.148;4.466;2022-10-22T16:10:58;11.57;;;3.60;;
67981;SDS011;64109;52.148;4.466;2022-10-22T16:13:24;12.98;;;5.22;;
67981;SDS011;64109;52.148;4.466;2022-10-22T16:15:51;14.60;;;5.03;;
67981;SDS011;64109;52.148;4.466;2022-10-22T16:18:17;12.35;;;4.45;;
67981;SDS011;64109;52.148;4.466;2022-10-22T16:20:43;15.20;;;4.93;;
67981;SDS011;64109;52.148;4.466;2022-10-22T16:23:09;11.35;;;3.30;;
67981;SDS011;64109;52.148;4.466;2022-10-22T16:25:36;11.55;;;4.95;;
67981;SDS011;64109;52.148;4.466;2022-10-22T16:28:02;9.38;;;3.35;;
67981;SDS011;64109;52.148;4.466;2022-10-22T16:30:28;10.73;;;5.10;;
67981;SDS011;64109;52.148;4.466;2022-10-22T16:32:54;12.40;;;4.32;;
67981;SDS011;64109;52.148;4.466;2022-10-22T16:35:20;8.65;;;4.00;;
67981;SDS011;64109;52.148;4.466;2022-10-22T16:37:46;9.90;;;3.97;;
67981;SDS011;64109;52.148;4.466;2022-10-22T16:40:12;11.32;;;4.00;;
67981;SDS011;64109;52.148;4.466;2022-10-22T16:42:38;8.13;;;4.10;;
67981;SDS011;64109;52.148;4.466;2022-10-22T16:45:04;10.23;;;3.28;;
67981;SDS011;64109;52.148;4.466;2022-10-22T16:47:30;8.82;;;3.78;;